createdAt,value
2022-11-17T00:04:59.439Z,27.3
2022-11-17T00:10:01.836Z,29.2
2022-11-17T00:15:04.368Z,30.8
2022-11-17T00:20:06.534Z,30.9
2022-11-17T00:25:09.780Z,32.6
2022-11-17T00:30:11.865Z,32.7
2022-11-17T00:35:18.882Z,29.7
2022-11-17T00:40:20.948Z,28.9
2022-11-17T00:45:23.029Z,28.8
2022-11-17T00:50:25.147Z,28.8
2022-11-17T00:55:27.295Z,29.6
2022-11-17T01:00:30.027Z,28.1
2022-11-17T01:05:33.233Z,30.2
2022-11-17T01:10:35.633Z,30.4
2022-11-17T01:15:37.842Z,33.1
2022-11-17T01:20:39.988Z,31.3
2022-11-17T01:25:42.044Z,30
2022-11-17T01:30:44.039Z,28.3
2022-11-17T01:35:46.012Z,26.9
2022-11-17T01:40:48.092Z,28.5
2022-11-17T01:45:50.200Z,25.9
2022-11-17T01:50:52.190Z,26.1
2022-11-17T01:55:54.187Z,26.1
2022-11-17T02:00:56.276Z,23.9
2022-11-17T02:05:58.490Z,27.2
2022-11-17T02:11:00.422Z,28.3
2022-11-17T02:16:02.501Z,30.9
2022-11-17T02:21:04.515Z,31.1
2022-11-17T02:26:06.492Z,30.9
2022-11-17T02:31:11.414Z,29.8
2022-11-17T02:36:13.468Z,30.8
2022-11-17T02:41:15.606Z,33.4
2022-11-17T02:46:17.639Z,31
2022-11-17T02:51:19.955Z,32.8
2022-11-17T02:56:21.968Z,33.2
2022-11-17T03:01:24.056Z,33.3
2022-11-17T03:06:26.720Z,32
2022-11-17T03:11:29.188Z,56.9
2022-11-17T03:16:29.741Z,30.6
2022-11-17T03:21:31.989Z,32.2
2022-11-17T03:26:34.008Z,30.7
2022-11-17T03:31:36.000Z,30.8
2022-11-17T03:36:38.352Z,30.5
2022-11-17T03:41:40.836Z,63.1
2022-11-17T03:46:41.316Z,33.2
2022-11-17T03:51:43.410Z,33
2022-11-17T03:56:45.425Z,31.2
2022-11-17T04:01:47.524Z,31.4
2022-11-17T04:06:49.851Z,32.6
2022-11-17T04:11:52.300Z,31.3
2022-11-17T04:16:54.362Z,30.7
2022-11-17T04:21:56.453Z,30.9
2022-11-17T04:26:58.512Z,30.8
2022-11-17T04:32:00.770Z,32.2
2022-11-17T04:37:08.096Z,33.8
2022-11-17T04:42:10.546Z,33.9
2022-11-17T04:47:12.786Z,34
2022-11-17T04:52:14.876Z,34.7
2022-11-17T04:57:16.876Z,34.4
2022-11-17T05:02:19.114Z,36.2
2022-11-17T05:07:21.453Z,35.1
2022-11-17T05:12:24.079Z,34.7
2022-11-17T05:17:26.374Z,33.9
2022-11-17T05:22:28.357Z,35.3
2022-11-17T05:27:30.368Z,34.5
2022-11-17T05:32:32.370Z,32.1
2022-11-17T05:37:34.451Z,32.4
2022-11-17T05:42:36.614Z,32
2022-11-17T05:47:38.946Z,31.6
2022-11-17T05:52:41.011Z,34.8
2022-11-17T05:57:43.263Z,31.6
2022-11-17T06:02:45.243Z,30.5
2022-11-17T06:07:47.196Z,32.4
2022-11-17T06:12:49.207Z,29.4
2022-11-17T06:17:51.138Z,29.3
2022-11-17T06:22:53.127Z,27.9
2022-11-17T06:27:55.147Z,27.2
2022-11-17T06:32:57.229Z,25.9
2022-11-17T06:37:59.316Z,25.3
2022-11-17T06:43:01.528Z,25
2022-11-17T06:48:03.870Z,23.9
2022-11-17T06:53:05.991Z,23.7
2022-11-17T06:58:08.241Z,23.7
2022-11-17T07:03:10.503Z,23.6
2022-11-17T07:08:12.770Z,26.8
2022-11-17T07:13:15.158Z,26.5
2022-11-17T07:18:17.426Z,25
2022-11-17T07:23:19.751Z,25.4
2022-11-17T07:28:21.931Z,23
2022-11-17T07:33:24.364Z,21.8
2022-11-17T07:38:26.555Z,21.8
2022-11-17T07:43:28.919Z,20.5
2022-11-17T07:48:31.250Z,23.6
2022-11-17T07:53:35.041Z,25.4
2022-11-17T07:58:38.659Z,14.1
2022-11-17T08:03:42.056Z,14
2022-11-17T08:08:44.770Z,16.1
2022-11-17T08:13:46.963Z,15.4
2022-11-17T08:18:52.287Z,16.7
2022-11-17T08:23:55.375Z,17.7
2022-11-17T08:28:58.879Z,17.3
2022-11-17T08:34:01.560Z,17
2022-11-17T08:39:03.762Z,16.7
2022-11-17T08:44:06.176Z,16.9
2022-11-17T08:49:08.567Z,15.9
2022-11-17T08:54:14.494Z,15.4
2022-11-17T08:59:16.742Z,13.4
2022-11-17T09:04:18.990Z,12.4
2022-11-17T09:09:21.213Z,12.1
2022-11-17T09:14:23.808Z,11.5
2022-11-17T09:19:25.910Z,10
2022-11-17T09:24:28.172Z,10.6
2022-11-17T09:29:30.184Z,9.6
2022-11-17T09:34:32.284Z,9.1
2022-11-17T09:39:34.547Z,10.3
2022-11-17T09:44:37.111Z,11.2
2022-11-17T09:49:39.164Z,10.4
2022-11-17T09:54:41.602Z,9.4
2022-11-17T09:59:44.861Z,8.8
2022-11-17T10:04:46.938Z,7.9
2022-11-17T10:09:49.099Z,8.2
2022-11-17T10:14:51.246Z,7.8
2022-11-17T10:19:53.442Z,6.7
2022-11-17T10:24:55.738Z,7.3
2022-11-17T10:29:57.907Z,6.6
2022-11-17T10:35:00.593Z,5.8
2022-11-17T10:40:03.578Z,4.9
2022-11-17T10:45:06.300Z,4.2
2022-11-17T10:50:08.631Z,4.1
2022-11-17T10:55:10.933Z,4.7
2022-11-17T11:00:13.080Z,3.8
2022-11-17T11:05:15.331Z,3.9
2022-11-17T11:10:17.738Z,3.8
2022-11-17T11:15:20.148Z,3.7
2022-11-17T11:20:22.520Z,4.3
2022-11-17T11:25:24.870Z,4.2
2022-11-17T11:30:27.187Z,3.7
2022-11-17T11:35:29.288Z,4.3
2022-11-17T11:40:31.411Z,4.3
2022-11-17T11:45:33.725Z,4.3
2022-11-17T11:50:40.501Z,5.1
2022-11-17T11:55:43.902Z,4
2022-11-17T12:00:46.399Z,3.8
2022-11-17T12:05:48.481Z,4.8
2022-11-17T12:10:50.567Z,4.4
2022-11-17T12:15:52.615Z,4.2
2022-11-17T12:20:54.695Z,4.9
2022-11-17T12:25:59.360Z,5.7
2022-11-17T12:31:05.241Z,6.8
2022-11-17T12:36:02.046Z,6.2
2022-11-17T12:41:04.229Z,7.3
2022-11-17T12:46:06.591Z,4.9
2022-11-17T12:51:08.798Z,4.6
2022-11-17T12:56:11.570Z,5.7
2022-11-17T13:01:13.723Z,6.8
2022-11-17T13:11:18.359Z,6.6
2022-11-17T13:16:20.722Z,9.5
2022-11-17T13:21:22.852Z,5.2
2022-11-17T13:26:24.880Z,4.9
2022-11-17T13:31:26.965Z,5.8
2022-11-17T13:36:29.134Z,5.4
2022-11-17T13:41:31.244Z,7.5
2022-11-17T13:46:34.029Z,7.4
2022-11-17T13:51:36.234Z,8.8
2022-11-17T13:56:38.959Z,7.3
2022-11-17T14:01:41.174Z,7.5
2022-11-17T14:06:43.827Z,6.7
2022-11-17T14:11:46.401Z,9.3
2022-11-17T14:16:48.607Z,8.1
2022-11-17T14:21:51.565Z,8.9
2022-11-17T14:26:54.174Z,10.8
2022-11-17T14:31:56.712Z,10.7
2022-11-17T14:36:58.843Z,10.3
2022-11-17T14:42:00.920Z,11.5
2022-11-17T14:47:03.593Z,12.6
2022-11-17T14:52:05.925Z,12.5
2022-11-17T14:57:08.131Z,13.1
2022-11-17T15:02:10.238Z,11.7
2022-11-17T15:07:12.625Z,12.7
2022-11-17T15:12:15.135Z,13.4
2022-11-17T15:17:17.221Z,12.3
2022-11-17T15:22:19.412Z,11.6
2022-11-17T15:27:21.503Z,13.3
2022-11-17T15:32:24.037Z,13.3
2022-11-17T15:37:26.123Z,14.6
2022-11-17T15:42:28.690Z,14.4
2022-11-17T15:47:31.548Z,16.6
2022-11-17T15:52:57.020Z,17.2
2022-11-17T15:57:37.066Z,17.3
2022-11-17T16:02:39.363Z,21.5
2022-11-17T16:07:41.501Z,18.2
2022-11-17T16:12:43.967Z,19.1
2022-11-17T16:17:46.135Z,16.9
2022-11-17T16:22:48.379Z,18.3
2022-11-17T16:27:50.701Z,18.1
2022-11-17T16:32:52.717Z,18.1
2022-11-17T16:37:55.005Z,20.4
2022-11-17T16:42:57.561Z,22.1
2022-11-17T16:47:59.862Z,23
2022-11-17T16:53:03.321Z,22.5
2022-11-17T16:58:05.706Z,24
2022-11-17T17:03:08.020Z,24.1
2022-11-17T17:08:10.545Z,23.7
2022-11-17T17:13:12.748Z,24.6
2022-11-17T17:18:14.968Z,24.5
2022-11-17T17:23:17.458Z,24.3
2022-11-17T17:28:19.854Z,26.1
2022-11-17T17:33:22.221Z,32.2
2022-11-17T17:38:24.461Z,25.6
2022-11-17T17:43:26.613Z,22.9
2022-11-17T17:48:28.761Z,23.6
2022-11-17T17:53:31.209Z,22.6
2022-11-17T17:58:33.373Z,20.1
2022-11-17T18:03:35.426Z,21.2
2022-11-17T18:08:38.244Z,19.8
2022-11-17T18:13:40.567Z,20.5
2022-11-17T18:18:42.704Z,17.7
2022-11-17T18:23:44.766Z,17.9
2022-11-17T18:28:46.944Z,16.3
2022-11-17T18:33:49.170Z,16.7
2022-11-17T18:38:51.352Z,17.2
2022-11-17T18:43:53.593Z,19.3
2022-11-17T18:48:55.951Z,17.7
2022-11-17T18:53:58.658Z,19.7
2022-11-17T18:59:01.162Z,19.6
2022-11-17T19:04:03.374Z,20.8
2022-11-17T19:09:08.401Z,21.2
2022-11-17T19:14:10.632Z,20.7
2022-11-17T19:19:13.271Z,19.5
2022-11-17T19:24:17.806Z,20.7
2022-11-17T19:29:20.089Z,19.8
2022-11-17T19:34:23.892Z,19.8
2022-11-17T19:39:26.372Z,21.3
2022-11-17T19:44:28.684Z,19.3
2022-11-17T19:49:32.341Z,18.7
2022-11-17T19:54:34.398Z,19.1
2022-11-17T19:59:36.586Z,19.4
2022-11-17T20:04:39.013Z,20.4
2022-11-17T20:09:41.097Z,18.8
2022-11-17T20:14:43.365Z,21.5
2022-11-17T20:19:45.445Z,22.4
2022-11-17T20:24:48.042Z,21.6
2022-11-17T20:29:50.131Z,21.4
2022-11-17T20:34:52.538Z,21.4
2022-11-17T20:39:54.929Z,21.4
2022-11-17T20:44:57.766Z,19.9
2022-11-17T20:50:00.421Z,20.8
2022-11-17T20:55:03.027Z,20.4
2022-11-17T21:00:12.693Z,21.6
2022-11-17T21:05:15.382Z,22.1
2022-11-17T21:10:19.991Z,22
2022-11-17T21:15:25.175Z,22.8
2022-11-17T21:20:31.563Z,24.2
2022-11-17T21:25:30.935Z,24.1
2022-11-17T21:30:47.538Z,24.5
2022-11-17T21:35:43.200Z,23.4
2022-11-17T21:40:52.792Z,25.5
2022-11-17T21:45:58.251Z,26.5
2022-11-17T21:51:01.848Z,26.1
2022-11-17T21:56:04.781Z,27.3
2022-11-17T22:01:07.127Z,27.4
2022-11-17T22:06:09.850Z,26.9
2022-11-17T22:11:12.039Z,28.3
2022-11-17T22:16:14.200Z,27.1
2022-11-17T22:21:16.336Z,28.6
2022-11-17T22:26:18.897Z,27.3
2022-11-17T22:31:21.066Z,29.2
2022-11-17T22:36:23.177Z,30.3
2022-11-17T22:41:25.369Z,32.1
2022-11-17T22:46:27.514Z,31.3
2022-11-17T22:51:30.072Z,32.7
2022-11-17T22:56:32.255Z,30.7
2022-11-17T23:01:34.699Z,33.6
2022-11-17T23:06:37.285Z,33.7
2022-11-17T23:11:38.549Z,32.9
2022-11-17T23:16:41.407Z,32.1
2022-11-17T23:21:43.514Z,32.7
2022-11-17T23:26:46.845Z,34
2022-11-17T23:31:49.040Z,33.9
2022-11-17T23:36:51.248Z,33.7
2022-11-17T23:41:53.419Z,35.8
2022-11-17T23:46:55.625Z,39.2
2022-11-17T23:51:57.790Z,39.4
2022-11-17T23:57:00.013Z,38.8
